createdAt,value
2019-01-21T00:01:36.838Z,62.04
2019-01-21T00:04:27.252Z,62.03
2019-01-21T00:07:17.284Z,62.04
2019-01-21T00:10:07.421Z,62.07
2019-01-21T00:12:57.620Z,62.03
2019-01-21T00:15:48.136Z,62.03
2019-01-21T00:18:37.999Z,62.03
2019-01-21T00:21:27.840Z,62.09
2019-01-21T00:24:17.728Z,62.44
2019-01-21T00:27:08.094Z,62.86
2019-01-21T00:29:58.333Z,62.95
2019-01-21T00:32:47.947Z,62.78
2019-01-21T00:35:37.839Z,62.65
2019-01-21T00:38:27.891Z,62.46
2019-01-21T00:41:18.071Z,62.32
2019-01-21T00:44:08.154Z,62.22
2019-01-21T00:46:58.360Z,62.13
2019-01-21T00:49:48.247Z,62.06
2019-01-21T00:52:38.604Z,62.00
2019-01-21T00:55:28.972Z,61.96
2019-01-21T00:58:19.180Z,61.96
2019-01-21T01:01:09.111Z,61.96
2019-01-21T01:03:59.171Z,61.94
2019-01-21T01:06:48.899Z,61.92
2019-01-21T01:09:38.587Z,61.95
2019-01-21T01:12:29.189Z,61.96
2019-01-21T01:15:19.636Z,61.95
2019-01-21T01:18:09.572Z,61.94
2019-01-21T01:20:59.339Z,61.93
2019-01-21T01:23:49.350Z,61.97
2019-01-21T01:26:38.905Z,61.90
2019-01-21T01:29:28.687Z,61.91
2019-01-21T01:32:18.809Z,61.90
2019-01-21T01:35:09.947Z,61.86
2019-01-21T01:38:00.011Z,61.81
2019-01-21T01:40:49.941Z,61.83
2019-01-21T01:43:40.256Z,61.82
2019-01-21T01:46:30.175Z,61.77
2019-01-21T01:49:20.659Z,61.79
2019-01-21T01:52:10.920Z,61.85
2019-01-21T01:55:00.866Z,61.88
2019-01-21T01:57:53.983Z,61.86
2019-01-21T02:00:43.717Z,61.82
2019-01-21T02:03:33.664Z,61.80
2019-01-21T02:06:23.916Z,61.75
2019-01-21T02:09:14.189Z,61.70
2019-01-21T02:12:04.270Z,61.74
2019-01-21T02:14:53.917Z,61.76
2019-01-21T02:17:43.512Z,61.79
2019-01-21T02:20:33.449Z,61.80
2019-01-21T02:23:30.034Z,61.80
2019-01-21T02:26:23.532Z,61.81
2019-01-21T02:29:30.974Z,61.80
2019-01-21T02:33:13.993Z,61.77
2019-01-21T02:36:31.806Z,61.79
2019-01-21T02:40:24.347Z,61.87
2019-01-21T02:43:57.409Z,61.96
2019-01-21T02:47:42.898Z,62.03
2019-01-21T02:51:12.115Z,62.10
2019-01-21T02:55:01.768Z,62.18
2019-01-21T02:58:38.563Z,62.26
2019-01-21T03:02:34.300Z,62.34
2019-01-21T03:06:00.601Z,62.42
2019-01-21T03:09:44.070Z,62.42
2019-01-21T03:13:33.412Z,62.34
2019-01-21T03:16:50.118Z,62.36
2019-01-21T03:20:17.589Z,62.40
2019-01-21T03:24:24.577Z,62.37
2019-01-21T03:28:15.035Z,62.33
2019-01-21T03:31:40.686Z,62.36
2019-01-21T03:35:22.328Z,62.52
2019-01-21T03:39:05.055Z,62.71
2019-01-21T03:42:31.142Z,62.76
2019-01-21T03:46:21.335Z,62.92
2019-01-21T03:49:27.833Z,63.00
2019-01-21T03:52:44.519Z,63.00
2019-01-21T03:55:35.291Z,62.95
2019-01-21T03:59:09.765Z,62.89
2019-01-21T04:02:44.481Z,63.05
2019-01-21T04:06:05.419Z,63.11
2019-01-21T04:10:02.353Z,63.23
2019-01-21T04:13:24.274Z,63.53
2019-01-21T04:16:43.113Z,63.68
2019-01-21T04:19:51.240Z,63.93
2019-01-21T04:26:57.949Z,63.99
2019-01-21T04:30:42.368Z,64.06
2019-01-21T04:34:41.611Z,64.39
2019-01-21T04:38:37.649Z,64.34
2019-01-21T04:42:06.035Z,64.38
2019-01-21T04:45:45.094Z,64.50
2019-01-21T04:49:48.796Z,64.54
2019-01-21T04:53:05.212Z,64.58
2019-01-21T04:56:52.203Z,64.72
2019-01-21T05:00:32.577Z,64.79
2019-01-21T05:04:10.356Z,64.85
2019-01-21T05:07:48.857Z,65.20
2019-01-21T05:11:29.600Z,65.00
2019-01-21T05:14:56.722Z,64.97
2019-01-21T05:18:41.256Z,64.93
2019-01-21T05:22:25.291Z,65.00
2019-01-21T05:26:05.721Z,65.11
2019-01-21T05:29:40.252Z,65.33
2019-01-21T05:33:42.551Z,65.32
2019-01-21T05:37:16.655Z,65.50
2019-01-21T05:40:46.630Z,65.59
2019-01-21T05:44:35.566Z,65.52
2019-01-21T05:48:18.038Z,65.49
2019-01-21T05:52:01.866Z,65.63
2019-01-21T05:55:07.335Z,65.79
2019-01-21T05:58:34.650Z,65.84
2019-01-21T06:02:30.131Z,65.67
2019-01-21T06:06:18.956Z,65.58
2019-01-21T06:10:16.166Z,65.48
2019-01-21T06:13:48.580Z,65.49
2019-01-21T06:17:23.462Z,65.82
2019-01-21T06:20:54.612Z,65.57
2019-01-21T06:24:51.821Z,65.60
2019-01-21T06:28:36.858Z,65.68
2019-01-21T06:32:15.907Z,65.65
2019-01-21T06:35:46.331Z,65.61
2019-01-21T06:39:29.736Z,65.62
2019-01-21T06:43:02.760Z,65.62
2019-01-21T06:46:48.197Z,65.71
2019-01-21T06:50:26.681Z,65.79
2019-01-21T06:54:25.801Z,65.73
2019-01-21T06:58:16.436Z,65.71
2019-01-21T07:01:44.069Z,65.66
2019-01-21T07:05:39.702Z,65.72
2019-01-21T07:09:22.248Z,65.53
2019-01-21T07:12:48.499Z,65.67
2019-01-21T07:16:21.024Z,65.49
2019-01-21T07:19:48.940Z,65.58
2019-01-21T07:23:36.699Z,65.54
2019-01-21T07:27:09.277Z,65.52
2019-01-21T07:30:52.761Z,65.60
2019-01-21T07:34:36.286Z,65.60
2019-01-21T07:38:04.935Z,65.73
2019-01-21T07:41:24.347Z,65.66
2019-01-21T07:45:04.157Z,65.65
2019-01-21T07:48:33.251Z,65.59
2019-01-21T07:52:13.914Z,65.69
2019-01-21T07:55:59.028Z,65.66
2019-01-21T08:00:12.280Z,65.86
2019-01-21T08:03:49.358Z,65.60
2019-01-21T08:07:38.973Z,65.50
2019-01-21T08:11:36.129Z,65.55
2019-01-21T08:14:54.931Z,65.56
2019-01-21T08:18:41.363Z,65.56
2019-01-21T08:22:20.784Z,65.58
2019-01-21T08:26:13.227Z,65.66
2019-01-21T08:30:00.970Z,65.63
2019-01-21T08:33:46.673Z,65.59
2019-01-21T08:37:28.064Z,65.47
2019-01-21T08:41:30.423Z,65.55
2019-01-21T08:45:02.609Z,65.39
2019-01-21T08:48:46.947Z,65.45
2019-01-21T08:52:46.918Z,65.32
2019-01-21T08:56:29.426Z,65.31
2019-01-21T08:59:51.240Z,65.23
2019-01-21T09:03:28.039Z,65.16
2019-01-21T09:06:45.558Z,65.08
2019-01-21T09:10:15.672Z,64.84
2019-01-21T09:13:47.768Z,64.89
2019-01-21T09:17:13.625Z,64.88
2019-01-21T09:20:45.888Z,64.94
2019-01-21T09:24:37.196Z,64.91
2019-01-21T09:28:29.219Z,64.93
2019-01-21T09:32:07.855Z,65.05
2019-01-21T09:35:51.787Z,65.29
2019-01-21T09:39:58.922Z,65.55
2019-01-21T09:43:15.529Z,65.50
2019-01-21T09:46:51.392Z,65.61
2019-01-21T09:49:43.668Z,65.47
2019-01-21T09:52:30.824Z,65.42
2019-01-21T09:55:23.469Z,65.35
2019-01-21T09:58:13.175Z,65.28
2019-01-21T10:01:03.859Z,65.31
2019-01-21T10:03:55.378Z,65.16
2019-01-21T10:07:11.253Z,65.10
2019-01-21T10:10:26.368Z,65.04
2019-01-21T10:14:16.751Z,64.96
2019-01-21T10:17:43.965Z,64.86
2019-01-21T10:21:22.493Z,64.47
2019-01-21T10:25:07.809Z,64.57
2019-01-21T10:28:48.017Z,64.70
2019-01-21T10:32:37.406Z,64.92
2019-01-21T10:36:15.177Z,65.07
2019-01-21T10:39:51.513Z,64.94
2019-01-21T10:43:35.062Z,64.98
2019-01-21T10:47:28.639Z,64.73
2019-01-21T10:51:01.330Z,64.74
2019-01-21T10:54:32.794Z,64.62
2019-01-21T10:57:46.178Z,64.67
2019-01-21T11:01:38.017Z,64.49
2019-01-21T11:05:26.657Z,64.32
2019-01-21T11:09:17.076Z,64.14
2019-01-21T11:12:37.225Z,63.71
2019-01-21T11:16:08.163Z,63.49
2019-01-21T11:19:44.315Z,63.47
2019-01-21T11:23:22.757Z,63.58
2019-01-21T11:27:18.571Z,63.58
2019-01-21T11:31:04.935Z,63.17
2019-01-21T11:34:55.588Z,63.38
2019-01-21T11:38:50.483Z,63.18
2019-01-21T11:42:26.808Z,63.39
2019-01-21T11:45:57.485Z,63.32
2019-01-21T11:49:44.726Z,62.99
2019-01-21T11:53:02.671Z,63.01
2019-01-21T11:56:34.186Z,63.19
2019-01-21T12:00:21.136Z,63.28
2019-01-21T12:03:55.544Z,63.19
2019-01-21T12:07:36.258Z,63.40
2019-01-21T12:11:21.091Z,63.25
2019-01-21T12:15:31.418Z,62.96
2019-01-21T12:19:19.083Z,63.05
2019-01-21T12:23:03.191Z,63.20
2019-01-21T12:26:52.385Z,63.18
2019-01-21T12:30:34.512Z,63.08
2019-01-21T12:34:00.310Z,63.29
2019-01-21T12:37:15.895Z,63.50
2019-01-21T12:40:46.302Z,63.29
2019-01-21T12:44:43.849Z,63.00
2019-01-21T12:48:01.154Z,63.15
2019-01-21T12:51:33.017Z,63.03
2019-01-21T12:55:04.018Z,62.94
2019-01-21T12:58:31.100Z,62.83
2019-01-21T13:01:37.302Z,62.85
2019-01-21T13:05:09.588Z,62.82
2019-01-21T13:08:49.570Z,62.55
2019-01-21T13:12:18.945Z,62.59
2019-01-21T13:15:55.380Z,62.62
2019-01-21T13:19:59.727Z,62.80
2019-01-21T13:23:12.334Z,62.92
2019-01-21T13:26:33.878Z,63.07
2019-01-21T13:30:06.677Z,63.14
2019-01-21T13:33:32.976Z,62.94
2019-01-21T13:36:54.522Z,62.87
2019-01-21T13:41:05.995Z,62.54
2019-01-21T13:44:57.435Z,62.49
2019-01-21T13:48:43.036Z,62.79
2019-01-21T13:52:28.505Z,62.95
2019-01-21T13:56:36.171Z,62.70
2019-01-21T14:00:18.576Z,62.93
2019-01-21T14:04:20.798Z,63.14
2019-01-21T14:08:12.298Z,63.33
2019-01-21T14:11:39.010Z,63.44
2019-01-21T14:15:53.591Z,63.66
2019-01-21T14:19:18.441Z,63.71
2019-01-21T14:22:55.214Z,63.78
2019-01-21T14:26:39.802Z,63.81
2019-01-21T14:30:31.469Z,63.86
2019-01-21T14:33:43.917Z,63.92
2019-01-21T14:37:35.297Z,63.96
2019-01-21T14:41:32.408Z,63.97
2019-01-21T14:45:04.714Z,64.07
2019-01-21T14:49:04.808Z,64.06
2019-01-21T14:52:59.393Z,64.08
2019-01-21T14:56:13.754Z,64.21
2019-01-21T14:59:52.850Z,64.22
2019-01-21T15:03:47.347Z,64.16
2019-01-21T15:07:08.956Z,64.18
2019-01-21T15:10:59.836Z,64.17
2019-01-21T15:14:19.397Z,64.21
2019-01-21T15:17:44.911Z,64.36
2019-01-21T15:21:22.991Z,64.41
2019-01-21T15:24:48.305Z,64.25
2019-01-21T15:28:27.315Z,64.29
2019-01-21T15:31:43.256Z,64.30
2019-01-21T15:35:38.518Z,64.37
2019-01-21T15:39:34.477Z,64.41
2019-01-21T15:42:49.992Z,64.53
2019-01-21T15:46:34.976Z,64.42
2019-01-21T15:50:02.376Z,64.61
2019-01-21T15:53:24.205Z,64.62
2019-01-21T15:57:28.684Z,64.62
2019-01-21T16:01:07.869Z,64.55
2019-01-21T16:04:40.052Z,64.53
2019-01-21T16:07:59.908Z,64.56
2019-01-21T16:11:45.395Z,64.75
2019-01-21T16:15:00.857Z,64.89
2019-01-21T16:18:36.206Z,65.18
2019-01-21T16:22:33.565Z,65.15
2019-01-21T16:25:44.126Z,65.23
2019-01-21T16:29:32.459Z,65.29
2019-01-21T16:32:30.978Z,65.28
2019-01-21T16:35:55.713Z,65.29
2019-01-21T16:39:51.129Z,65.29
2019-01-21T16:42:41.292Z,65.37
2019-01-21T16:45:31.353Z,65.55
2019-01-21T16:48:21.461Z,65.46
2019-01-21T16:51:12.446Z,65.56
2019-01-21T16:54:02.358Z,65.29
2019-01-21T16:56:52.172Z,65.21
2019-01-21T16:59:41.845Z,65.18
2019-01-21T17:02:31.975Z,65.04
2019-01-21T17:05:22.029Z,65.03
2019-01-21T17:08:12.008Z,65.18
2019-01-21T17:11:01.503Z,65.30
2019-01-21T17:13:51.203Z,65.38
2019-01-21T17:16:41.244Z,65.29
2019-01-21T17:19:31.555Z,65.32
2019-01-21T17:22:20.589Z,65.08
2019-01-21T17:25:10.668Z,64.76
2019-01-21T17:28:00.752Z,64.52
2019-01-21T17:30:51.041Z,64.57
2019-01-21T17:33:41.020Z,64.58
2019-01-21T17:36:30.857Z,64.59
2019-01-21T17:39:20.731Z,64.69
2019-01-21T17:42:10.660Z,64.73
2019-01-21T17:45:01.528Z,64.58
2019-01-21T17:47:52.177Z,64.35
2019-01-21T17:50:42.222Z,64.29
2019-01-21T17:53:32.483Z,64.49
2019-01-21T17:56:22.515Z,64.46
2019-01-21T17:59:12.566Z,64.49
2019-01-21T18:02:02.819Z,64.50
2019-01-21T18:04:53.923Z,64.48
2019-01-21T18:07:44.584Z,64.45
2019-01-21T18:10:34.596Z,64.47
2019-01-21T18:13:24.482Z,64.51
2019-01-21T18:16:14.649Z,64.43
2019-01-21T18:19:04.677Z,64.46
2019-01-21T18:21:54.396Z,64.55
2019-01-21T18:24:44.040Z,64.47
2019-01-21T18:27:34.756Z,64.19
2019-01-21T18:30:27.670Z,63.79
2019-01-21T18:33:17.379Z,63.78
2019-01-21T18:36:06.759Z,63.80
2019-01-21T18:38:56.496Z,63.73
2019-01-21T18:41:46.991Z,63.65
2019-01-21T18:44:36.678Z,63.52
2019-01-21T18:47:26.562Z,63.46
2019-01-21T18:50:16.558Z,63.41
2019-01-21T18:53:06.065Z,63.37
2019-01-21T18:55:56.580Z,63.41
2019-01-21T18:58:47.260Z,63.39
2019-01-21T19:01:37.185Z,63.39
2019-01-21T19:04:27.394Z,63.43
2019-01-21T19:07:16.847Z,63.36
2019-01-21T19:10:09.347Z,63.30
2019-01-21T19:12:59.046Z,63.26
2019-01-21T19:15:49.117Z,63.20
2019-01-21T19:18:39.169Z,63.20
2019-01-21T19:21:29.449Z,63.09
2019-01-21T19:24:19.463Z,63.07
2019-01-21T19:27:09.573Z,63.09
2019-01-21T19:29:59.623Z,63.06
2019-01-21T19:32:50.076Z,63.06
2019-01-21T19:35:40.376Z,63.07
2019-01-21T19:38:30.270Z,63.07
2019-01-21T19:41:20.485Z,63.11
2019-01-21T19:44:10.371Z,63.11
2019-01-21T19:47:00.960Z,63.04
2019-01-21T19:49:51.076Z,63.20
2019-01-21T19:52:41.783Z,63.23
2019-01-21T19:55:42.486Z,63.17
2019-01-21T19:58:32.776Z,63.41
2019-01-21T20:01:23.086Z,63.27
2019-01-21T20:04:13.386Z,63.22
2019-01-21T20:07:02.773Z,63.16
2019-01-21T20:09:52.728Z,63.22
2019-01-21T20:12:42.956Z,63.17
2019-01-21T20:15:32.414Z,63.13
2019-01-21T20:18:22.205Z,63.39
2019-01-21T20:21:12.539Z,63.53
2019-01-21T20:24:02.832Z,63.73
2019-01-21T20:26:52.971Z,63.76
2019-01-21T20:30:31.757Z,63.64
2019-01-21T20:36:48.143Z,63.92
2019-01-21T20:39:38.228Z,64.14
2019-01-21T20:42:41.502Z,63.97
2019-01-21T20:45:37.377Z,63.85
2019-01-21T20:48:27.042Z,63.77
2019-01-21T20:51:16.956Z,63.82
2019-01-21T20:54:06.923Z,63.69
2019-01-21T20:56:57.224Z,63.55
2019-01-21T20:59:46.979Z,63.46
2019-01-21T21:02:36.970Z,63.36
2019-01-21T21:05:27.009Z,63.41
2019-01-21T21:08:17.476Z,63.36
2019-01-21T21:11:07.263Z,63.36
2019-01-21T21:13:57.786Z,63.62
2019-01-21T21:16:49.758Z,63.73
2019-01-21T21:19:40.105Z,63.74
2019-01-21T21:22:30.047Z,63.65
2019-01-21T21:25:21.887Z,63.54
2019-01-21T21:28:13.476Z,63.50
2019-01-21T21:31:04.097Z,63.36
2019-01-21T21:33:54.547Z,63.26
2019-01-21T21:36:45.007Z,63.12
2019-01-21T21:39:35.100Z,63.10
2019-01-21T21:42:25.238Z,63.14
2019-01-21T21:45:17.280Z,63.17
2019-01-21T21:48:07.375Z,63.19
2019-01-21T21:50:57.270Z,63.09
2019-01-21T21:53:47.001Z,62.97
2019-01-21T21:56:36.901Z,62.99
2019-01-21T21:59:26.806Z,62.93
2019-01-21T22:02:16.634Z,62.83
2019-01-21T22:05:08.249Z,62.88
2019-01-21T22:07:57.857Z,62.85
2019-01-21T22:10:47.978Z,62.94
2019-01-21T22:13:37.904Z,63.25
2019-01-21T22:16:27.794Z,63.06
2019-01-21T22:19:17.763Z,63.02
2019-01-21T22:22:08.128Z,63.18
2019-01-21T22:24:57.685Z,63.43
2019-01-21T22:27:47.769Z,63.64
2019-01-21T22:30:37.646Z,63.91
2019-01-21T22:33:27.286Z,64.20
2019-01-21T22:36:17.113Z,64.23
2019-01-21T22:39:09.156Z,64.54
2019-01-21T22:42:00.018Z,64.63
2019-01-21T22:44:49.832Z,64.26
2019-01-21T22:47:40.403Z,63.98
2019-01-21T22:50:30.831Z,63.80
2019-01-21T22:53:23.505Z,63.67
2019-01-21T22:56:12.250Z,63.62
2019-01-21T22:59:01.951Z,63.45
2019-01-21T23:01:51.932Z,63.60
2019-01-21T23:04:41.992Z,63.43
2019-01-21T23:07:31.940Z,63.28
2019-01-21T23:10:21.842Z,63.17
2019-01-21T23:13:12.080Z,63.31
2019-01-21T23:16:02.373Z,63.55
2019-01-21T23:18:52.328Z,63.38
2019-01-21T23:21:41.995Z,63.61
2019-01-21T23:24:31.626Z,63.49
2019-01-21T23:27:22.063Z,63.59
2019-01-21T23:30:14.206Z,63.74
2019-01-21T23:33:04.457Z,63.81
2019-01-21T23:35:54.719Z,63.91
2019-01-21T23:38:44.867Z,63.62
2019-01-21T23:41:35.139Z,63.29
2019-01-21T23:44:25.488Z,63.15
2019-01-21T23:47:15.189Z,63.05
2019-01-21T23:50:05.799Z,62.98
2019-01-21T23:52:56.286Z,62.91
2019-01-21T23:55:46.776Z,62.87
2019-01-21T23:58:36.613Z,62.73
